createdAt,value
2022-09-22T00:01:32.324Z,0.30
2022-09-22T00:04:01.728Z,1.40
2022-09-22T00:06:34.645Z,0.30
2022-09-22T00:09:02.284Z,0.40
2022-09-22T00:11:43.661Z,0.40
2022-09-22T00:14:14.681Z,0.47
2022-09-22T00:16:50.258Z,0.20
2022-09-22T00:19:26.124Z,0.30
2022-09-22T00:21:53.724Z,0.30
2022-09-22T00:24:22.725Z,0.30
2022-09-22T00:26:50.411Z,0.20
2022-09-22T00:29:17.536Z,0.43
2022-09-22T00:31:45.300Z,0.20
2022-09-22T00:34:17.847Z,0.30
2022-09-22T00:36:45.163Z,0.30
2022-09-22T00:39:13.336Z,0.30
2022-09-22T00:41:42.892Z,0.20
2022-09-22T00:44:21.400Z,0.30
2022-09-22T00:46:53.505Z,0.30
2022-09-22T00:49:28.708Z,0.20
2022-09-22T00:51:55.591Z,0.40
2022-09-22T00:54:22.480Z,0.20
2022-09-22T00:57:05.901Z,6.32
2022-09-22T00:59:33.106Z,0.20
2022-09-22T01:02:00.008Z,0.30
2022-09-22T01:04:28.077Z,0.30
2022-09-22T01:06:56.837Z,0.20
2022-09-22T01:09:24.348Z,6.13
2022-09-22T01:11:51.239Z,0.20
2022-09-22T01:14:42.228Z,0.20
2022-09-22T01:17:27.114Z,0.20
2022-09-22T01:20:12.824Z,0.30
2022-09-22T01:22:55.840Z,0.28
2022-09-22T01:25:43.852Z,0.25
2022-09-22T01:28:48.625Z,0.20
2022-09-22T01:31:39.428Z,0.30
2022-09-22T01:34:54.702Z,0.20
2022-09-22T01:37:32.198Z,0.20
2022-09-22T01:40:13.361Z,0.88
2022-09-22T01:42:44.352Z,1.02
2022-09-22T01:45:22.290Z,0.20
2022-09-22T01:47:59.824Z,0.20
2022-09-22T01:50:35.672Z,0.85
2022-09-22T01:53:08.557Z,0.30
2022-09-22T01:55:42.434Z,0.28
2022-09-22T01:58:25.362Z,0.20
2022-09-22T02:00:58.844Z,0.20
2022-09-22T02:03:32.216Z,0.30
2022-09-22T02:06:08.819Z,0.20
2022-09-22T02:08:43.149Z,0.20
2022-09-22T02:11:14.062Z,0.30
2022-09-22T02:13:43.039Z,0.20
2022-09-22T02:16:11.851Z,0.20
2022-09-22T02:18:51.086Z,0.43
2022-09-22T02:21:19.361Z,0.20
2022-09-22T02:23:47.894Z,0.47
2022-09-22T02:26:23.998Z,0.40
2022-09-22T02:29:02.373Z,0.20
2022-09-22T02:31:33.063Z,0.20
2022-09-22T02:34:00.707Z,0.20
2022-09-22T02:36:30.401Z,0.30
2022-09-22T02:39:02.939Z,0.45
2022-09-22T02:41:47.554Z,0.32
2022-09-22T02:44:39.370Z,0.40
2022-09-22T02:47:14.322Z,0.32
2022-09-22T02:49:43.222Z,3.92
2022-09-22T02:52:14.424Z,0.20
2022-09-22T02:54:41.415Z,0.50
2022-09-22T02:57:10.193Z,0.43
2022-09-22T02:59:37.016Z,0.40
2022-09-22T03:02:04.185Z,0.55
2022-09-22T03:04:31.159Z,0.30
2022-09-22T03:06:58.007Z,0.30
2022-09-22T03:09:24.845Z,0.20
2022-09-22T03:11:51.893Z,0.20
2022-09-22T03:14:18.752Z,0.20
2022-09-22T03:16:45.539Z,0.20
2022-09-22T03:19:12.615Z,0.20
2022-09-22T03:21:39.498Z,0.30
2022-09-22T03:24:06.624Z,0.30
2022-09-22T03:26:34.879Z,0.20
2022-09-22T03:29:02.209Z,0.20
2022-09-22T03:31:29.071Z,0.25
2022-09-22T03:33:55.980Z,0.40
2022-09-22T03:36:23.428Z,0.20
2022-09-22T03:38:52.078Z,0.88
2022-09-22T03:41:19.512Z,0.20
2022-09-22T03:43:46.345Z,0.20
2022-09-22T03:46:14.449Z,0.30
2022-09-22T03:48:44.941Z,0.20
2022-09-22T03:51:12.611Z,0.20
2022-09-22T03:53:39.530Z,0.38
2022-09-22T03:56:12.116Z,0.20
2022-09-22T03:58:39.788Z,0.20
2022-09-22T04:01:07.377Z,0.70
2022-09-22T04:03:35.157Z,0.22
2022-09-22T04:06:03.011Z,0.20
2022-09-22T04:08:29.961Z,0.28
2022-09-22T04:10:57.841Z,0.20
2022-09-22T04:13:24.731Z,0.20
2022-09-22T04:15:51.682Z,0.70
2022-09-22T04:18:18.622Z,0.20
2022-09-22T04:20:45.549Z,0.20
2022-09-22T04:23:13.984Z,0.32
2022-09-22T04:25:41.472Z,0.20
2022-09-22T04:28:08.431Z,0.20
2022-09-22T04:30:36.887Z,0.20
2022-09-22T04:33:04.171Z,0.20
2022-09-22T04:35:31.018Z,0.30
2022-09-22T04:37:58.481Z,0.20
2022-09-22T04:40:26.602Z,0.30
2022-09-22T04:42:53.468Z,0.20
2022-09-22T04:45:20.713Z,0.60
2022-09-22T04:47:49.277Z,0.20
2022-09-22T04:50:17.447Z,0.20
2022-09-22T04:52:50.138Z,0.20
2022-09-22T04:55:17.980Z,0.30
2022-09-22T04:57:49.268Z,0.20
2022-09-22T05:00:16.875Z,0.20
2022-09-22T05:02:43.957Z,0.68
2022-09-22T05:05:11.577Z,0.20
2022-09-22T05:07:48.266Z,0.20
2022-09-22T05:10:20.036Z,0.20
2022-09-22T05:12:47.296Z,0.30
2022-09-22T05:15:15.267Z,6.60
2022-09-22T05:17:46.841Z,2.33
2022-09-22T05:20:14.231Z,2.08
2022-09-22T05:22:43.094Z,2.17
2022-09-22T05:25:12.140Z,2.10
2022-09-22T05:27:47.309Z,2.35
2022-09-22T05:30:14.429Z,2.30
2022-09-22T05:32:45.730Z,3.45
2022-09-22T05:35:16.790Z,4.38
2022-09-22T05:37:44.839Z,0.50
2022-09-22T05:40:12.593Z,0.20
2022-09-22T05:42:43.923Z,0.20
2022-09-22T05:45:11.579Z,0.20
2022-09-22T05:47:39.509Z,0.20
2022-09-22T05:50:07.967Z,0.60
2022-09-22T05:52:35.169Z,0.20
2022-09-22T05:55:02.130Z,0.20
2022-09-22T05:57:28.956Z,0.20
2022-09-22T05:59:55.783Z,0.68
2022-09-22T06:02:26.538Z,0.20
2022-09-22T06:04:54.039Z,0.22
2022-09-22T06:07:22.168Z,0.20
2022-09-22T06:09:49.540Z,0.35
2022-09-22T06:12:17.272Z,0.20
2022-09-22T06:14:44.370Z,0.40
2022-09-22T06:17:12.191Z,0.20
2022-09-22T06:19:40.045Z,0.20
2022-09-22T06:22:08.291Z,2.85
2022-09-22T06:24:35.109Z,1.67
2022-09-22T06:27:01.970Z,2.60
2022-09-22T06:29:28.938Z,2.63
2022-09-22T06:31:55.898Z,2.00
2022-09-22T06:34:23.996Z,3.22
2022-09-22T06:36:50.911Z,4.03
2022-09-22T06:39:17.722Z,4.53
2022-09-22T06:41:45.052Z,6.65
2022-09-22T06:44:13.124Z,2.85
2022-09-22T06:46:40.125Z,0.20
2022-09-22T06:49:07.041Z,0.30
2022-09-22T06:51:36.028Z,0.20
2022-09-22T06:54:05.638Z,0.75
2022-09-22T06:56:38.030Z,0.40
2022-09-22T06:59:11.111Z,0.20
2022-09-22T07:01:39.363Z,0.35
2022-09-22T07:04:06.568Z,0.20
2022-09-22T07:06:33.629Z,0.20
2022-09-22T07:09:00.619Z,0.20
2022-09-22T07:11:27.486Z,0.35
2022-09-22T07:13:55.043Z,0.20
2022-09-22T07:16:23.943Z,0.38
2022-09-22T07:18:53.720Z,0.22
2022-09-22T07:21:21.810Z,0.25
2022-09-22T07:23:52.397Z,0.20
2022-09-22T07:26:23.399Z,0.35
2022-09-22T07:28:53.819Z,0.20
2022-09-22T07:31:27.784Z,0.20
2022-09-22T07:33:56.221Z,0.20
2022-09-22T07:36:26.235Z,0.40
2022-09-22T07:38:55.181Z,0.20
2022-09-22T07:41:25.021Z,0.20
2022-09-22T07:43:56.303Z,0.30
2022-09-22T07:46:23.980Z,0.20
2022-09-22T07:48:51.407Z,0.20
2022-09-22T07:51:25.791Z,0.20
2022-09-22T07:56:41.177Z,1.35
2022-09-22T07:59:16.868Z,0.40
2022-09-22T08:01:47.683Z,0.20
2022-09-22T08:04:21.280Z,0.20
2022-09-22T08:06:52.114Z,0.20
2022-09-22T08:09:19.184Z,0.20
2022-09-22T08:11:48.831Z,0.20
2022-09-22T08:14:18.651Z,1.92
2022-09-22T08:16:46.113Z,2.45
2022-09-22T08:19:14.054Z,2.83
2022-09-22T08:21:48.309Z,3.80
2022-09-22T08:24:21.389Z,2.88
2022-09-22T08:26:50.654Z,3.70
2022-09-22T08:29:17.725Z,5.63
2022-09-22T08:31:47.909Z,3.05
2022-09-22T08:34:18.768Z,5.35
2022-09-22T08:36:47.353Z,5.00
2022-09-22T08:39:15.224Z,5.22
2022-09-22T08:41:48.109Z,8.60
2022-09-22T08:44:32.925Z,2.50
2022-09-22T08:47:01.952Z,4.63
2022-09-22T08:50:06.095Z,5.72
2022-09-22T08:52:38.987Z,2.72
2022-09-22T08:55:33.255Z,2.60
2022-09-22T08:58:07.463Z,3.83
2022-09-22T09:00:42.921Z,5.60
2022-09-22T09:03:26.447Z,4.10
2022-09-22T09:05:58.559Z,3.20
2022-09-22T09:08:40.403Z,2.42
2022-09-22T09:11:26.411Z,3.85
2022-09-22T09:14:24.049Z,4.30
2022-09-22T09:17:09.508Z,4.18
2022-09-22T09:19:46.122Z,6.10
2022-09-22T09:22:25.481Z,2.58
2022-09-22T09:27:57.867Z,3.90
2022-09-22T09:30:24.760Z,2.72
2022-09-22T09:33:04.741Z,2.00
2022-09-22T09:35:53.723Z,1.73
2022-09-22T09:38:47.284Z,5.38
2022-09-22T09:41:22.348Z,1.70
2022-09-22T09:43:56.290Z,1.88
2022-09-22T09:46:35.252Z,3.70
2022-09-22T09:49:16.878Z,1.80
2022-09-22T09:51:47.415Z,6.20
2022-09-22T09:54:17.728Z,4.68
2022-09-22T09:57:08.623Z,1.55
2022-09-22T09:59:55.876Z,1.25
2022-09-22T10:02:29.257Z,1.38
2022-09-22T10:05:10.274Z,2.57
2022-09-22T10:07:44.138Z,1.80
2022-09-22T10:10:33.375Z,1.30
2022-09-22T10:13:06.029Z,2.88
2022-09-22T10:15:38.626Z,1.77
2022-09-22T10:18:24.053Z,1.55
2022-09-22T10:21:21.919Z,2.42
2022-09-22T10:23:53.742Z,2.53
2022-09-22T10:26:32.216Z,3.65
2022-09-22T10:29:19.389Z,2.00
2022-09-22T10:32:07.639Z,2.70
2022-09-22T10:34:38.529Z,3.05
2022-09-22T10:37:11.716Z,2.25
2022-09-22T10:39:47.907Z,4.05
2022-09-22T10:42:36.143Z,2.65
2022-09-22T10:45:12.029Z,1.85
2022-09-22T10:48:03.697Z,2.05
2022-09-22T10:50:35.722Z,2.45
2022-09-22T10:53:44.471Z,3.28
2022-09-22T10:56:41.608Z,4.38
2022-09-22T10:59:45.924Z,2.72
2022-09-22T11:02:25.251Z,1.80
2022-09-22T11:05:47.612Z,4.63
2022-09-22T11:08:35.586Z,1.70
2022-09-22T11:11:29.364Z,1.48
2022-09-22T11:14:27.537Z,3.40
2022-09-22T11:16:57.574Z,2.80
2022-09-22T11:19:40.991Z,2.05
2022-09-22T11:22:26.670Z,1.88
2022-09-22T11:25:21.424Z,2.22
2022-09-22T11:28:03.726Z,1.90
2022-09-22T11:30:46.878Z,1.75
2022-09-22T11:33:31.504Z,1.70
2022-09-22T11:38:48.757Z,2.00
2022-09-22T11:41:37.340Z,1.77
2022-09-22T11:44:28.751Z,2.08
2022-09-22T11:47:19.518Z,2.22
2022-09-22T11:50:22.757Z,2.70
2022-09-22T11:53:08.071Z,2.25
2022-09-22T11:55:50.089Z,2.03
2022-09-22T11:58:24.230Z,1.83
2022-09-22T12:00:57.815Z,2.28
2022-09-22T12:03:32.678Z,1.80
2022-09-22T12:06:05.341Z,1.40
2022-09-22T12:08:45.995Z,1.73
2022-09-22T12:11:17.995Z,2.63
2022-09-22T12:13:48.506Z,3.25
2022-09-22T12:16:18.827Z,2.25
2022-09-22T12:18:45.632Z,1.60
2022-09-22T12:21:33.197Z,2.85
2022-09-22T12:24:03.381Z,1.95
2022-09-22T12:26:42.802Z,2.53
2022-09-22T12:29:16.367Z,2.25
2022-09-22T12:31:45.706Z,3.10
2022-09-22T12:34:26.027Z,10.02
2022-09-22T12:36:59.664Z,1.83
2022-09-22T12:39:32.301Z,2.03
2022-09-22T12:42:05.838Z,2.95
2022-09-22T12:44:38.209Z,1.40
2022-09-22T12:47:31.733Z,1.80
2022-09-22T12:50:00.219Z,2.05
2022-09-22T12:52:42.255Z,2.25
2022-09-22T12:55:28.468Z,2.50
2022-09-22T12:58:00.172Z,1.80
2022-09-22T13:00:41.182Z,2.50
2022-09-22T13:03:26.234Z,1.88
2022-09-22T13:05:54.390Z,3.72
2022-09-22T13:08:33.236Z,2.75
2022-09-22T13:11:01.965Z,1.88
2022-09-22T13:13:31.965Z,2.42
2022-09-22T13:16:01.863Z,2.95
2022-09-22T13:18:45.513Z,2.78
2022-09-22T13:21:12.306Z,2.47
2022-09-22T13:23:51.541Z,3.05
2022-09-22T13:26:39.168Z,3.92
2022-09-22T13:29:16.413Z,1.98
2022-09-22T13:31:51.221Z,2.00
2022-09-22T13:34:26.689Z,1.55
2022-09-22T13:37:00.436Z,1.73
2022-09-22T13:39:31.675Z,1.67
2022-09-22T13:42:06.365Z,1.30
2022-09-22T13:44:36.800Z,1.95
2022-09-22T13:47:12.026Z,2.03
2022-09-22T13:49:45.045Z,2.40
2022-09-22T13:52:21.831Z,2.00
2022-09-22T13:54:59.588Z,1.95
2022-09-22T13:57:30.398Z,2.10
2022-09-22T14:00:00.210Z,1.38
2022-09-22T14:02:31.960Z,3.55
2022-09-22T14:05:08.985Z,2.72
2022-09-22T14:07:49.562Z,3.33
2022-09-22T14:10:27.821Z,1.70
2022-09-22T14:12:57.344Z,2.55
2022-09-22T14:15:43.691Z,1.83
2022-09-22T14:18:30.997Z,1.52
2022-09-22T14:20:59.115Z,2.10
2022-09-22T14:23:30.152Z,1.92
2022-09-22T14:25:58.985Z,2.85
2022-09-22T14:28:34.341Z,1.23
2022-09-22T14:31:01.576Z,3.28
2022-09-22T14:33:33.555Z,1.75
2022-09-22T14:36:06.159Z,1.90
2022-09-22T14:38:44.376Z,2.42
2022-09-22T14:41:26.311Z,5.25
2022-09-22T14:43:54.726Z,1.80
2022-09-22T14:46:37.544Z,3.55
2022-09-22T14:49:40.877Z,2.33
2022-09-22T14:52:29.200Z,1.80
2022-09-22T14:54:59.628Z,3.45
2022-09-22T14:57:27.485Z,1.88
2022-09-22T15:00:16.010Z,4.20
2022-09-22T15:02:52.951Z,2.00
2022-09-22T15:05:29.661Z,4.18
2022-09-22T15:07:57.722Z,2.97
2022-09-22T15:10:30.707Z,3.63
2022-09-22T15:13:20.527Z,2.60
2022-09-22T15:15:48.821Z,3.92
2022-09-22T15:18:21.675Z,2.95
2022-09-22T15:20:52.864Z,3.38
2022-09-22T15:23:31.803Z,2.10
2022-09-22T15:26:03.733Z,3.00
2022-09-22T15:28:32.406Z,2.30
2022-09-22T15:30:59.260Z,4.20
2022-09-22T15:33:27.151Z,2.95
2022-09-22T15:36:00.551Z,2.83
2022-09-22T15:38:31.537Z,3.17
2022-09-22T15:40:59.099Z,2.65
2022-09-22T15:43:31.038Z,2.80
2022-09-22T15:46:03.089Z,3.97
2022-09-22T15:48:37.562Z,2.40
2022-09-22T15:53:34.239Z,4.85
2022-09-22T15:56:03.961Z,4.13
2022-09-22T15:58:36.186Z,2.55
2022-09-22T16:01:03.624Z,2.80
2022-09-22T16:03:31.501Z,2.75
2022-09-22T16:06:02.216Z,3.83
2022-09-22T16:08:35.346Z,2.63
2022-09-22T16:11:05.637Z,6.25
2022-09-22T16:13:35.521Z,3.05
2022-09-22T16:16:05.533Z,2.95
2022-09-22T16:18:36.515Z,3.72
2022-09-22T16:21:16.060Z,3.75
2022-09-22T16:23:43.232Z,2.53
2022-09-22T16:26:10.203Z,3.83
2022-09-22T16:28:37.320Z,3.42
2022-09-22T16:31:05.604Z,2.70
2022-09-22T16:33:33.008Z,2.83
2022-09-22T16:35:59.818Z,3.00
2022-09-22T16:38:26.906Z,2.47
2022-09-22T16:41:01.405Z,4.65
2022-09-22T16:43:28.305Z,2.97
2022-09-22T16:46:13.520Z,3.67
2022-09-22T16:48:41.780Z,4.40
2022-09-22T16:51:16.351Z,2.53
2022-09-22T16:53:43.200Z,5.32
2022-09-22T16:56:10.002Z,3.83
2022-09-22T16:58:36.849Z,4.97
2022-09-22T17:01:05.004Z,3.47
2022-09-22T17:03:31.991Z,3.58
2022-09-22T17:06:07.286Z,2.80
2022-09-22T17:08:35.489Z,3.25
2022-09-22T17:11:04.010Z,4.80
2022-09-22T17:13:33.695Z,3.80
2022-09-22T17:16:10.821Z,4.05
2022-09-22T17:18:41.930Z,3.65
2022-09-22T17:21:09.237Z,4.38
2022-09-22T17:23:38.498Z,3.40
2022-09-22T17:26:07.644Z,3.60
2022-09-22T17:28:35.036Z,3.30
2022-09-22T17:31:02.700Z,4.07
2022-09-22T17:33:29.990Z,5.10
2022-09-22T17:35:58.838Z,5.53
2022-09-22T17:38:27.332Z,3.67
2022-09-22T17:41:10.464Z,4.07
2022-09-22T17:43:41.942Z,5.50
2022-09-22T17:46:12.628Z,3.88
2022-09-22T17:48:57.902Z,4.72
2022-09-22T17:51:59.867Z,3.45
2022-09-22T17:54:47.714Z,5.70
2022-09-22T17:57:20.525Z,3.75
2022-09-22T17:59:47.927Z,6.00
2022-09-22T18:02:17.997Z,3.45
2022-09-22T18:04:46.132Z,3.50
2022-09-22T18:07:18.646Z,4.97
2022-09-22T18:09:47.600Z,3.55
2022-09-22T18:12:21.717Z,5.10
2022-09-22T18:14:50.301Z,3.67
2022-09-22T18:17:19.936Z,4.00
2022-09-22T18:19:46.998Z,4.88
2022-09-22T18:22:17.300Z,2.70
2022-09-22T18:24:45.561Z,5.07
2022-09-22T18:27:13.493Z,4.07
2022-09-22T18:29:40.517Z,4.35
2022-09-22T18:32:07.518Z,4.18
2022-09-22T18:34:34.602Z,4.65
2022-09-22T18:37:03.289Z,4.32
2022-09-22T18:39:31.396Z,5.72
2022-09-22T18:41:59.034Z,4.95
2022-09-22T18:44:28.243Z,4.63
2022-09-22T18:46:56.727Z,4.35
2022-09-22T18:49:23.725Z,7.95
2022-09-22T18:51:50.666Z,3.88
2022-09-22T18:54:19.627Z,6.53
2022-09-22T18:56:48.735Z,4.90
2022-09-22T18:59:21.120Z,4.07
2022-09-22T19:01:49.713Z,5.18
2022-09-22T19:04:26.733Z,5.05
2022-09-22T19:07:14.341Z,4.80
2022-09-22T19:09:42.310Z,7.05
2022-09-22T19:12:10.240Z,4.72
2022-09-22T19:14:39.261Z,6.22
2022-09-22T19:17:07.740Z,4.68
2022-09-22T19:19:38.337Z,4.97
2022-09-22T19:22:11.187Z,5.55
2022-09-22T19:24:40.808Z,6.35
2022-09-22T19:27:09.311Z,6.75
2022-09-22T19:33:17.353Z,4.50
2022-09-22T19:35:44.207Z,4.85
2022-09-22T19:38:11.128Z,6.75
2022-09-22T19:40:38.086Z,5.60
2022-09-22T19:43:04.975Z,6.53
2022-09-22T19:45:32.228Z,5.43
2022-09-22T19:47:59.156Z,5.35
2022-09-22T19:50:26.476Z,5.35
2022-09-22T19:52:53.494Z,5.88
2022-09-22T19:55:21.376Z,7.03
2022-09-22T20:01:41.708Z,7.20
2022-09-22T20:04:20.137Z,7.38
2022-09-22T20:10:27.932Z,9.07
2022-09-22T20:12:55.709Z,7.32
2022-09-22T20:15:22.588Z,6.13
2022-09-22T20:17:49.628Z,9.23
2022-09-22T20:20:21.845Z,7.93
2022-09-22T20:22:56.960Z,7.65
2022-09-22T20:29:04.984Z,6.70
2022-09-22T20:31:31.883Z,6.53
2022-09-22T20:33:58.757Z,7.28
2022-09-22T20:36:25.680Z,7.15
2022-09-22T20:38:53.333Z,8.77
2022-09-22T20:41:22.091Z,9.95
2022-09-22T20:43:50.136Z,8.00
2022-09-22T20:46:18.288Z,9.23
2022-09-22T20:48:45.844Z,11.13
2022-09-22T20:51:13.268Z,10.15
2022-09-22T20:53:40.549Z,8.20
2022-09-22T20:56:12.139Z,9.32
2022-09-22T20:58:44.505Z,11.98
2022-09-22T21:01:13.626Z,7.68
2022-09-22T21:03:40.518Z,9.63
2022-09-22T21:06:09.869Z,10.75
2022-09-22T21:09:02.260Z,10.68
2022-09-22T21:11:30.383Z,8.82
2022-09-22T21:14:02.000Z,8.35
2022-09-22T21:16:29.960Z,9.93
2022-09-22T21:18:57.348Z,9.77
2022-09-22T21:21:24.439Z,8.98
2022-09-22T21:23:51.389Z,11.77
2022-09-22T21:26:20.879Z,12.52
2022-09-22T21:28:50.480Z,10.82
2022-09-22T21:31:17.694Z,11.63
2022-09-22T21:33:44.875Z,9.80
2022-09-22T21:36:18.479Z,9.57
2022-09-22T21:38:50.462Z,8.03
2022-09-22T21:41:20.635Z,9.80
2022-09-22T21:43:49.968Z,9.05
2022-09-22T21:46:26.336Z,8.90
2022-09-22T21:48:59.301Z,11.02
2022-09-22T21:51:26.675Z,9.23
2022-09-22T21:53:54.602Z,10.68
2022-09-22T21:56:24.941Z,10.00
2022-09-22T21:58:54.278Z,11.77
2022-09-22T22:01:26.848Z,11.40
2022-09-22T22:03:55.598Z,9.38
2022-09-22T22:06:34.839Z,10.98
2022-09-22T22:09:21.718Z,10.95
2022-09-22T22:11:51.790Z,10.32
2022-09-22T22:14:20.413Z,11.65
2022-09-22T22:16:52.970Z,11.07
2022-09-22T22:19:23.062Z,12.45
2022-09-22T22:21:51.209Z,9.57
2022-09-22T22:24:25.508Z,12.43
2022-09-22T22:27:01.415Z,11.30
2022-09-22T22:29:34.878Z,8.60
2022-09-22T22:32:03.176Z,8.27
2022-09-22T22:34:30.035Z,11.25
2022-09-22T22:37:00.932Z,12.65
2022-09-22T22:39:27.919Z,11.45
2022-09-22T22:41:55.317Z,9.05
2022-09-22T22:44:22.947Z,10.07
2022-09-22T22:46:50.069Z,10.65
2022-09-22T22:49:16.964Z,10.60
2022-09-22T22:51:44.217Z,11.20
2022-09-22T22:54:12.329Z,10.90
2022-09-22T22:56:43.185Z,9.45
2022-09-22T22:59:11.945Z,8.00
2022-09-22T23:01:40.667Z,6.43
2022-09-22T23:04:10.894Z,11.77
2022-09-22T23:06:41.831Z,9.13
2022-09-22T23:09:11.915Z,7.43
2022-09-22T23:11:40.303Z,9.57
2022-09-22T23:14:11.463Z,8.82
2022-09-22T23:16:41.320Z,8.60
2022-09-22T23:19:11.511Z,9.00
2022-09-22T23:21:38.356Z,9.07
2022-09-22T23:24:05.655Z,6.97
2022-09-22T23:26:32.666Z,8.90
2022-09-22T23:29:00.102Z,7.40
2022-09-22T23:31:27.862Z,6.72
2022-09-22T23:33:54.780Z,7.38
2022-09-22T23:36:25.399Z,7.10
2022-09-22T23:39:03.397Z,8.80
2022-09-22T23:41:31.778Z,8.43
2022-09-22T23:43:58.605Z,7.07
2022-09-22T23:46:25.668Z,8.63
2022-09-22T23:48:52.658Z,8.32
2022-09-22T23:51:19.679Z,8.02
2022-09-22T23:53:46.642Z,8.13
2022-09-22T23:56:14.164Z,9.77
2022-09-22T23:58:40.982Z,8.43
